»·PEaware :: WAT390 KHLN-KSEA

WAT390 :: KHLN-KSEA

FLIGHT INFORMATION

Flight Status: Arrived
Operator:
Walker Air Transport
More flights by this operator :: More flights under this callsign
Pilot: Ewen S. (18928)
Aircraft: EMBRAER ERJ-145
(E145)
More flights by this aircraft type
Origin: KHLN Helena Regl
United States
Destination: KSEA Seattle-Tacoma Intl
United States
More flights between these airports :: More routes between these airports
Route: SIEBE3 SIEBE MLP GLASR1
File this flight plan on PilotEdge
Remarks:
Altitude:
(Current/Filed)
30,000ft
Speed:
(Current/Filed)
440kts
Departed: 16-Feb-21 01:34 PM
Arrived: 16-Feb-21 02:54 PM
Distance/Time
Traveled:
425nm/1:19
Distance/Time
To Go:
Arrived

Flight Plot

Page will automatically refresh every two minutes.

Flight plan parsing failed; only flown route is shown


Map Options




Map Legend


Flown Route
Filed Route
Departure Airport
Arrival Airport
Navaid (VOR, NDB)
Fix

Horizontal Profiles

Position Reports

Time Latitude Longitude Heading Altitude Ground
Speed
16-Feb-21 13:11 46.609768 -111.990506 48 3848ft 0kts
16-Feb-21 13:11 46.609768 -111.990506 48 3848ft 0kts
16-Feb-21 13:13 46.609768 -111.990506 48 3848ft 0kts
16-Feb-21 13:14 46.609768 -111.990506 48 3848ft 0kts
16-Feb-21 13:14 46.609768 -111.990506 48 3848ft 0kts
16-Feb-21 13:16 46.609768 -111.990506 48 3848ft 0kts
16-Feb-21 13:16 46.609768 -111.990506 48 3848ft 0kts
16-Feb-21 13:17 46.609768 -111.990506 48 3848ft 0kts
16-Feb-21 13:18 46.609768 -111.990506 48 3848ft 0kts
16-Feb-21 13:20 46.609768 -111.990506 48 3848ft 0kts
16-Feb-21 13:20 46.609768 -111.990506 48 3848ft 0kts
16-Feb-21 13:21 46.609768 -111.990506 48 3848ft 0kts
16-Feb-21 13:22 46.609768 -111.990506 48 3848ft 0kts
16-Feb-21 13:23 46.609768 -111.990506 48 3848ft 0kts
16-Feb-21 13:24 46.609768 -111.990506 48 3848ft 0kts
16-Feb-21 13:25 46.609769 -111.990506 48 3848ft 0kts
16-Feb-21 13:26 46.609769 -111.990506 48 3848ft 0kts
16-Feb-21 13:27 46.609776 -111.990395 118 3848ft 0kts
16-Feb-21 13:28 46.608952 -111.989438 102 3848ft 5kts
16-Feb-21 13:29 46.608486 -111.986364 102 3848ft 13kts
16-Feb-21 13:30 46.607314 -111.978857 102 3848ft 19kts
16-Feb-21 13:31 46.606141 -111.971242 102 3848ft 22kts
16-Feb-21 13:32 46.604821 -111.962914 119 3848ft 8kts
16-Feb-21 13:33 46.604095 -111.969850 283 3848ft 80kts
16-Feb-21 13:34 46.614276 -112.015879 331 4917ft 119kts
16-Feb-21 13:35 46.649153 -112.011361 2 5978ft 156kts
16-Feb-21 13:36 46.701990 -112.021935 333 7720ft 223kts
16-Feb-21 13:37 46.760901 -112.063423 332 10620ft 245kts
16-Feb-21 13:38 46.825253 -112.109141 332 12993ft 283kts
16-Feb-21 13:39 46.890311 -112.185272 288 13307ft 305kts
16-Feb-21 13:40 46.912554 -112.305725 287 16360ft 311kts
16-Feb-21 13:41 46.934720 -112.429855 287 19097ft 314kts
16-Feb-21 13:42 46.956360 -112.551897 287 21757ft 307kts
16-Feb-21 13:43 46.977602 -112.672475 287 24067ft 302kts
16-Feb-21 13:44 46.998533 -112.792037 288 26082ft 299kts
16-Feb-21 13:45 47.019042 -112.909890 288 27843ft 296kts
16-Feb-21 13:46 47.039284 -113.027100 288 29453ft 294kts
16-Feb-21 13:47 47.059809 -113.146544 288 29873ft 313kts
16-Feb-21 13:48 47.082126 -113.277574 288 29871ft 339kts
16-Feb-21 13:49 47.105734 -113.417275 287 29878ft 362kts
16-Feb-21 13:50 47.130780 -113.566690 287 29876ft 383kts
16-Feb-21 13:51 47.156773 -113.723250 286 29879ft 400kts
16-Feb-21 13:52 47.183551 -113.885904 286 29878ft 414kts
16-Feb-21 13:53 47.210848 -114.053331 286 29878ft 424kts
16-Feb-21 13:54 47.237854 -114.220898 286 29885ft 414kts
16-Feb-21 13:55 47.264083 -114.385088 286 29888ft 405kts
16-Feb-21 13:56 47.289533 -114.545986 286 29887ft 398kts
16-Feb-21 13:57 47.314442 -114.705022 285 29891ft 394kts
16-Feb-21 13:58 47.338863 -114.862378 285 29891ft 390kts
16-Feb-21 13:59 47.362876 -115.018762 285 29884ft 388kts
16-Feb-21 14:00 47.386564 -115.174462 284 29858ft 388kts
16-Feb-21 14:01 47.410533 -115.333559 284 29849ft 402kts
16-Feb-21 14:02 47.435112 -115.498528 284 29845ft 413kts
16-Feb-21 14:03 47.457499 -115.667978 277 29847ft 423kts
16-Feb-21 14:04 47.469241 -115.844238 276 29843ft 430kts
16-Feb-21 14:05 47.480189 -116.024316 276 29887ft 422kts
16-Feb-21 14:06 47.490298 -116.195460 276 29993ft 409kts
16-Feb-21 14:07 47.499954 -116.362977 276 29998ft 405kts
16-Feb-21 14:08 47.509344 -116.530105 276 30003ft 408kts
16-Feb-21 14:09 47.518649 -116.700219 275 30010ft 414kts
16-Feb-21 14:10 47.527817 -116.872531 275 30009ft 416kts
16-Feb-21 14:11 47.536762 -117.045666 275 30002ft 415kts
16-Feb-21 14:12 47.545333 -117.216612 275 29997ft 410kts
16-Feb-21 14:13 47.553557 -117.385504 275 29996ft 403kts
16-Feb-21 14:14 47.561394 -117.551504 275 29995ft 396kts
16-Feb-21 14:15 47.573354 -117.714523 278 29999ft 391kts
16-Feb-21 14:16 47.588676 -117.874739 278 30000ft 387kts
16-Feb-21 14:17 47.603963 -118.036648 278 30017ft 401kts
16-Feb-21 14:18 47.619553 -118.204818 278 30019ft 417kts
16-Feb-21 14:19 47.635432 -118.378990 278 30018ft 428kts
16-Feb-21 14:20 47.651077 -118.553588 278 30012ft 420kts
16-Feb-21 14:21 47.666196 -118.725397 278 30017ft 411kts
16-Feb-21 14:22 47.680823 -118.894490 278 30031ft 405kts
16-Feb-21 14:23 47.695108 -119.062391 278 28710ft 406kts
16-Feb-21 14:24 47.708856 -119.226987 278 27039ft 393kts
16-Feb-21 14:25 47.722054 -119.387782 277 25819ft 392kts
16-Feb-21 14:26 47.735096 -119.549606 277 24599ft 395kts
16-Feb-21 14:27 47.747953 -119.712294 276 23393ft 397kts
16-Feb-21 14:28 47.760703 -119.876550 276 22187ft 394kts
16-Feb-21 14:29 47.772974 -120.037691 276 20971ft 385kts
16-Feb-21 14:30 47.784767 -120.195378 277 19757ft 380kts
16-Feb-21 14:31 47.796283 -120.352366 277 18526ft 377kts
16-Feb-21 14:32 47.807489 -120.508030 277 17536ft 369kts
16-Feb-21 14:33 47.818290 -120.660981 277 16639ft 361kts
16-Feb-21 14:34 47.828381 -120.806638 277 15208ft 339kts
16-Feb-21 14:35 47.837792 -120.945006 277 13677ft 325kts
16-Feb-21 14:36 47.846760 -121.079157 277 12142ft 318kts
16-Feb-21 14:37 47.855028 -121.205051 277 11987ft 282kts
16-Feb-21 14:38 47.862539 -121.321190 277 11993ft 273kts
16-Feb-21 14:39 47.869656 -121.433166 277 11995ft 273kts
16-Feb-21 14:40 47.876842 -121.547914 277 11995ft 274kts
16-Feb-21 14:41 47.883929 -121.663021 276 11993ft 275kts
16-Feb-21 14:42 47.846566 -121.760228 241 11922ft 285kts
16-Feb-21 14:43 47.808076 -121.867779 245 10341ft 276kts
16-Feb-21 14:44 47.772410 -121.967178 245 8752ft 249kts
16-Feb-21 14:45 47.740226 -122.054609 245 7225ft 231kts
16-Feb-21 14:46 47.709085 -122.136612 245 5690ft 219kts
16-Feb-21 14:47 47.676280 -122.210860 232 4241ft 201kts
16-Feb-21 14:48 47.644655 -122.267007 234 3902ft 168kts
16-Feb-21 14:49 47.603041 -122.306226 183 2996ft 182kts
16-Feb-21 14:50 47.553350 -122.306923 181 2208ft 168kts
16-Feb-21 14:51 47.509324 -122.307314 180 1388ft 138kts
16-Feb-21 14:52 47.473827 -122.307788 181 726ft 125kts
16-Feb-21 14:53 47.446931 -122.307911 179 476ft 18kts
16-Feb-21 14:54 47.446008 -122.306674 59 476ft 1kts
16-Feb-21 14:55 47.447630 -122.303925 100 476ft 12kts
16-Feb-21 14:56 47.446564 -122.303458 218 476ft 0kts
16-Feb-21 14:57 47.446561 -122.303462 218 476ft 0kts
16-Feb-21 14:58 47.446561 -122.303462 218 476ft 0kts
16-Feb-21 14:59 47.446561 -122.303462 218 476ft 0kts

Navigation Log

Ident Type
Flight plan parsing failed, navigation log unavailable